Flight Track Log - Related Links

Times and Time Zones

All times are in EDT time to prevent confusion due to time zone crossing. See the DCM6126 flight status page for this flight to view local times or setup timezone preferences in your user account.


Time Position Orientation Groundspeed Altitude Reporting Facility
EDT Latitude Longitude Course Direction KTS MPH feet Rate Location/Type
Mon 06:30:43 AM 41.8250 -91.7372 198° South 180 207 4,100  Level Chicago Center
Mon 06:31:44 AM 41.7722 -91.7675 203° Southwest 203 234 6,200 2,182 Climbing Chicago Center
Mon 06:32:44 AM 41.7164 -91.7989 203° Southwest 218 251 8,500 2,281 Climbing Chicago Center
Mon 06:33:45 AM 41.6594 -91.8289 201° Southwest 223 257 10,800 2,083 Climbing Chicago Center
Mon 06:34:45 AM 41.6006 -91.8589 201° Southwest 228 262 12,700 2,033 Climbing Chicago Center
Mon 06:35:00 AM 41.4484 -91.9230 198° South  Level FlightAware Approximate
Mon 06:35:46 AM 41.5267 -91.8972 201° Southwest 240 276 14,900  Level Chicago Center
Mon 06:36:47 AM 41.4633 -91.9289 201° Southwest 244 281 16,600 1,587 Climbing Chicago Center
Mon 06:37:47 AM 41.4008 -91.9600 200° South 243 280 18,100 1,388 Climbing Chicago Center
Mon 06:38:48 AM 41.3358 -91.9917 200° South 250 288 19,400 1,339 Climbing Chicago Center
Mon 06:39:48 AM 41.2703 -92.0261 202° Southwest 255 293 20,800 1,339 Climbing Chicago Center
Mon 06:40:49 AM 41.2053 -92.0606 202° Southwest 257 296 22,100 1,289 Climbing Chicago Center
Mon 06:41:49 AM 41.1358 -92.0933 200° South 265 305 23,400 1,240 Climbing Chicago Center
Mon 06:42:50 AM 41.0678 -92.1297 202° Southwest 267 307 24,600 1,190 Climbing Chicago Center
Mon 06:43:50 AM 40.9964 -92.1642 200° South 275 316 25,800 1,140 Climbing Chicago Center
Mon 06:44:51 AM 40.9247 -92.2008 201° Southwest 278 320 26,900 1,091 Climbing Chicago Center
Mon 06:45:51 AM 40.8514 -92.2375 201° Southwest 283 326 28,000 1,091 Climbing Chicago Center
Mon 06:46:52 AM 40.7794 -92.2742 201° Southwest 283 326 29,100 1,082 Climbing Chicago Center
Mon 06:47:53 AM 40.7061 -92.3108 201° Southwest 282 325 30,200 1,131 Climbing Chicago Center
Mon 06:48:54 AM 40.6183 -92.3536 200° South 283 326 31,400 1,140 Climbing Chicago Center
Mon 06:49:54 AM 40.5447 -92.3906 201° Southwest 284 327 32,500 973 Climbing Chicago Center
Mon 06:50:45 AM 40.4903 -92.4175 201° Southwest 283 326 33,200 857 Climbing Kansas City Center
Mon 06:51:46 AM 40.4175 -92.4533 201° Southwest 281 323 34,100 843 Climbing Kansas City Center
Mon 06:52:46 AM 40.3442 -92.4897 201° Southwest 281 323 34,900 850 Climbing Kansas City Center
Mon 06:53:46 AM 40.2681 -92.5283 201° Southwest 278 320 35,800 550 Climbing Kansas City Center
Mon 06:54:46 AM 40.1981 -92.5636 201° Southwest 278 320 36,000 99 Climbing Kansas City Center
Mon 06:55:47 AM 40.1039 -92.6011 197° South 302 348 36,000  Level Kansas City Center
Mon 06:56:47 AM 40.0192 -92.6233 191° South 317 365 36,000  Level Kansas City Center
Mon 06:57:47 AM 39.9278 -92.6478 192° South 332 382 36,000  Level Kansas City Center
Mon 06:58:47 AM 39.8353 -92.6744 192° South 340 391 36,000  Level Kansas City Center
Mon 06:59:48 AM 39.7389 -92.7006 192° South 350 403 36,000  Level Kansas City Center
Mon 07:00:48 AM 39.6425 -92.7275 192° South 353 406 36,000  Level Kansas City Center
Mon 07:01:48 AM 39.5458 -92.7533 192° South 355 409 36,000  Level Kansas City Center
Mon 07:02:48 AM 39.4481 -92.7789 191° South 358 412 36,000  Level Kansas City Center
Mon 07:03:49 AM 39.3508 -92.8061 192° South 359 413 36,000  Level Kansas City Center
Mon 07:04:49 AM 39.2528 -92.8339 192° South 362 417 36,000  Level Kansas City Center
Mon 07:05:49 AM 39.1544 -92.8619 192° South 364 419 36,000  Level Kansas City Center
Mon 07:06:50 AM 39.0558 -92.8869 191° South 364 419 36,000  Level Kansas City Center
Mon 07:07:50 AM 38.9508 -92.9164 192° South 364 419 36,000  Level Kansas City Center
Mon 07:08:51 AM 38.8506 -92.9422 191° South 366 421 36,000  Level Kansas City Center
Mon 07:09:51 AM 38.7503 -92.9706 192° South 367 422 36,000  Level Kansas City Center
Mon 07:10:52 AM 38.6500 -92.9975 192° South 368 423 36,000  Level Kansas City Center
Mon 07:11:52 AM 38.5483 -93.0247 192° South 371 427 36,000  Level Kansas City Center
Mon 07:12:53 AM 38.4472 -93.0497 191° South 371 427 36,000  Level Kansas City Center
Mon 07:13:53 AM 38.3467 -93.0772 192° South 370 426 36,000  Level Kansas City Center
Mon 07:14:54 AM 38.2467 -93.1022 191° South 368 423 36,000  Level Kansas City Center
Mon 07:15:54 AM 38.1458 -93.1286 192° South 368 423 36,000  Level Kansas City Center
Mon 07:16:55 AM 38.0450 -93.1561 192° South 370 426 36,000  Level Kansas City Center
Mon 07:17:56 AM 37.9258 -93.1864 191° South 366 421 36,000  Level Kansas City Center
Mon 07:18:56 AM 37.8264 -93.2128 192° South 365 420 36,000  Level Kansas City Center
Mon 07:19:57 AM 37.7281 -93.2381 191° South 362 417 36,000  Level Kansas City Center
Mon 07:20:58 AM 37.6306 -93.2636 192° South 359 413 36,000  Level Kansas City Center
Mon 07:21:58 AM 37.5336 -93.2894 192° South 356 410 36,000  Level Kansas City Center
Mon 07:22:59 AM 37.4358 -93.3147 192° South 357 411 36,000  Level Kansas City Center
Mon 07:24:00 AM 37.3364 -93.3414 192° South 361 415 36,000  Level Kansas City Center
Mon 07:25:00 AM 37.2525 -93.4081 212° Southwest 360 414 36,000  Level Kansas City Center
Mon 07:26:01 AM 37.1700 -93.4706 211° Southwest 349 402 36,000  Level Kansas City Center
Mon 07:27:02 AM 37.0853 -93.5322 210° Southwest 349 402 36,000  Level Kansas City Center
Mon 07:28:03 AM 36.9969 -93.5925 209° Southwest 356 410 36,000  Level Kansas City Center
Mon 07:29:03 AM 36.9117 -93.6531 210° Southwest 353 406 36,000  Level Kansas City Center
Mon 07:30:04 AM 36.8297 -93.7100 209° Southwest 358 412 36,000  Level Kansas City Center
Mon 07:31:05 AM 36.7311 -93.7800 210° Southwest 355 409 36,000  Level Kansas City Center
Mon 07:32:06 AM 36.6442 -93.8419 210° Southwest 356 410 36,000  Level Kansas City Center
Mon 07:33:07 AM 36.5569 -93.9028 209° Southwest 357 411 36,000  Level Kansas City Center
Mon 07:34:08 AM 36.4700 -93.9644 210° Southwest 357 411 36,000  Level Kansas City Center
Mon 07:35:09 AM 36.3836 -94.0253 210° Southwest 356 410 36,000  Level Kansas City Center
Mon 07:35:44 AM 36.3308 -94.0639 211° Southwest 365 420 36,000  Level Memphis Center
Mon 07:36:44 AM 36.2436 -94.1217 208° Southwest 365 420 36,000  Level Memphis Center
Mon 07:37:44 AM 36.1408 -94.1403 188° South 360 414 36,000  Level Memphis Center
Mon 07:38:44 AM 36.0422 -94.1639 191° South 367 422 36,000  Level Memphis Center
Mon 07:39:44 AM 35.9650 -94.2347 217° Southwest 345 397 36,000  Level Memphis Center
Mon 07:40:44 AM 35.8897 -94.3028 216° Southwest 345 397 36,000  Level Memphis Center
Mon 07:41:44 AM 35.8147 -94.3683 215° Southwest 345 397 36,000  Level Memphis Center
Mon 07:42:44 AM 35.7394 -94.4414 218° Southwest 345 397 36,000  Level Memphis Center
Mon 07:43:44 AM 35.6642 -94.5092 216° Southwest 345 397 36,000  Level Memphis Center
Mon 07:44:44 AM 35.5869 -94.5769 216° Southwest 350 403 36,000  Level Memphis Center
Mon 07:45:44 AM 35.5094 -94.6469 216° Southwest 350 403 36,000  Level Memphis Center
Mon 07:47:27 AM 35.3886 -94.7578 217° Southwest 359 413 36,000  Level Fort Worth Center
Mon 07:48:27 AM 35.3128 -94.8211 214° Southwest 346 398 36,000  Level Fort Worth Center
Mon 07:49:27 AM 35.2350 -94.8897 216° Southwest 346 398 36,000  Level Fort Worth Center
Mon 07:50:27 AM 35.1611 -94.9578 217° Southwest 346 398 36,000  Level Fort Worth Center
Mon 07:51:27 AM 35.0792 -95.0314 216° Southwest 346 398 36,000  Level Fort Worth Center
Mon 07:52:27 AM 35.0033 -95.0994 216° Southwest 346 398 36,000  Level Fort Worth Center
Mon 07:53:27 AM 34.9272 -95.1672 216° Southwest 346 398 36,000  Level Fort Worth Center
Mon 07:54:27 AM 34.8514 -95.2325 215° Southwest 346 398 36,000  Level Fort Worth Center
Mon 07:55:27 AM 34.7772 -95.2975 216° Southwest 341 392 36,000  Level Fort Worth Center
Mon 07:56:27 AM 34.7011 -95.3625 215° Southwest 341 392 36,000  Level Fort Worth Center
Mon 07:57:27 AM 34.6272 -95.4275 216° Southwest 341 392 36,000  Level Fort Worth Center
Mon 07:58:27 AM 34.5511 -95.4947 216° Southwest 341 392 36,000  Level Fort Worth Center
Mon 07:59:27 AM 34.4728 -95.5644 216° Southwest 340 391 36,000  Level Fort Worth Center
Mon 08:00:27 AM 34.3964 -95.6267 214° Southwest 340 391 36,000  Level Fort Worth Center
Mon 08:01:27 AM 34.3181 -95.6936 215° Southwest 340 391 36,000  Level Fort Worth Center
Mon 08:02:27 AM 34.2481 -95.7578 217° Southwest 340 391 36,000  Level Fort Worth Center
Mon 08:03:27 AM 34.1697 -95.8244 215° Southwest 340 391 36,000  Level Fort Worth Center
Mon 08:04:27 AM 34.0933 -95.8911 216° Southwest 340 391 36,000  Level Fort Worth Center
Mon 08:06:27 AM 33.9464 -96.0164 215° Southwest 340 391 36,000  Level Fort Worth Center
Mon 08:07:27 AM 33.8700 -96.0803 215° Southwest 335 386 36,000  Level Fort Worth Center
Mon 08:08:27 AM 33.7997 -96.1411 216° Southwest 322 371 36,000  Level Fort Worth Center
Mon 08:09:27 AM 33.7314 -96.1997 216° Southwest 322 371 36,000  Level Fort Worth Center
Mon 08:10:27 AM 33.6506 -96.2681 215° Southwest 328 377 36,000  Level Fort Worth Center
Mon 08:12:27 AM 33.5036 -96.3922 215° Southwest 333 383 36,000  Level Fort Worth Center
Mon 08:13:27 AM 33.4372 -96.4500 216° Southwest 328 377 36,000  Level Fort Worth Center
Mon 08:15:27 AM 33.2919 -96.5733 215° Southwest 328 377 36,000  Level Fort Worth Center
Mon 08:16:27 AM 33.2192 -96.6336 215° Southwest 328 377 36,000  Level Fort Worth Center
Mon 08:17:27 AM 33.1383 -96.7039 216° Southwest 328 377 36,000  Level Fort Worth Center
Mon 08:18:27 AM 33.0717 -96.7614 216° Southwest 328 377 36,000  Level Fort Worth Center
Mon 08:19:27 AM 32.9906 -96.8289 215° Southwest 328 377 36,000  Level Fort Worth Center
Mon 08:20:27 AM 32.9178 -96.8814 211° Southwest 323 372 36,000  Level Fort Worth Center
Mon 08:21:27 AM 32.8239 -96.9042 192° South 328 377 36,000  Level Fort Worth Center
Mon 08:22:27 AM 32.7194 -96.8925 175° South 356 410 36,000  Level Fort Worth Center
Mon 08:24:05 AM 32.5625 -96.8878 179° South 372 428 36,000  Level Houston Center
Mon 08:24:27 AM 32.5150 -96.8814 174° South 370 426 36,000  Level Fort Worth Center
Mon 08:27:10 AM 32.2531 -96.8678 177° South 367 422 36,000  Level Houston Center
Mon 08:27:27 AM 32.2206 -96.8658 177° South 359 413 36,000  Level Fort Worth Center
Mon 08:28:27 AM 32.1203 -96.8614 178° South 365 420 36,000  Level Fort Worth Center
Mon 08:29:27 AM 32.0097 -96.8547 177° South 365 420 36,000 -779 Level Fort Worth Center
Mon 08:31:00 AM 31.8692 -96.8439 177° South  Level FlightAware Approximate
Mon 08:32:18 AM 31.7183 -96.8375 177° South 372 428 33,000  Level Houston Center
Mon 08:33:20 AM 31.6142 -96.8222 173° South 372 428 33,000  Level Houston Center
Mon 08:34:22 AM 31.5111 -96.8064 173° South 370 426 33,000  Level Houston Center
Mon 08:35:23 AM 31.4069 -96.7897 172° South 371 427 33,000 -389 Level Houston Center
Mon 08:37:27 AM 31.2047 -96.7117 162° South 386 444 31,800 -1,287 Descending Houston Center
Mon 08:39:00 AM 31.0605 -96.7303 172° South  Level FlightAware Approximate
Mon 08:39:30 AM 31.0086 -96.6111 172° South 375 432 27,700  Level Houston Center
Mon 08:40:32 AM 30.9106 -96.5611 156° South 377 434 25,600 -2,177 Descending Houston Center
Mon 08:41:34 AM 30.7917 -96.5011 157° South 390 449 23,200 -2,151 Descending Houston Center
Mon 08:42:18 AM 30.7225 -96.4678 157° South 382 440 21,800 -1,951 Descending Houston Center
Mon 08:43:37 AM 30.6025 -96.4044 156° South 365 420 19,200 -1,872 Descending Houston Center
Mon 08:44:39 AM 30.5106 -96.3589 157° South 356 410 17,400 -1,879 Descending Houston Center
Mon 08:45:16 AM 30.4511 -96.3306 158° South 348 400 16,100 -1,939 Descending Houston Center
Mon 08:46:18 AM 30.3614 -96.2850 156° South 338 389 14,200 -1,744 Descending Houston Center
Mon 08:46:42 AM 30.3347 -96.2711 156° South 337 388 13,600 -1,574 Descending Houston Center
Mon 08:47:19 AM 30.2781 -96.2436 157° South 330 380 12,600 -1,645 Descending Houston Center
Mon 08:47:44 AM 30.2489 -96.2281 155° Southeast 331 381 11,900 -1,475 Descending Houston Center
Mon 08:48:20 AM 30.1950 -96.2022 157° South 301 346 11,100 -871 Descending Houston Center
Mon 08:48:46 AM 30.1706 -96.1892 155° Southeast 309 356 11,000 -492 Descending Houston Center
Mon 08:49:21 AM 30.1203 -96.1622 155° Southeast 302 348 10,600 -968 Descending Houston Center
Mon 08:49:48 AM 30.0978 -96.1489 153° Southeast 300 345 10,000 -1,180 Descending Houston Center
Mon 08:50:22 AM 30.0622 -96.0989 129° Southeast 284 327 9,400 -1,161 Descending Houston Center
Mon 08:50:50 AM 30.0458 -96.0594 116° Southeast 300 345 8,800 -1,151 Descending Houston Center
Mon 08:51:35 AM 30.0175 -95.9931 116° Southeast 300 345 8,000 -1,082 Descending Houston Center
Mon 08:51:51 AM 30.0153 -95.9836 105° East 298 343 7,700 -1,154 Descending Houston Center
Mon 08:52:53 AM 29.9808 -95.9000 115° Southeast 291 335 6,500 -1,021 Descending Houston Center
Mon 08:53:25 AM 29.9583 -95.8456 115° Southeast 280 322 6,100 -195 Descending Houston Center
Mon 08:55:00 AM 29.8799 -95.7027 122° Southeast  Level Estimated
Mon 08:55:58 AM 29.8789 -95.6492 122° Southeast 255 293 5,900  Level Houston Center
Mon 08:56:29 AM 29.8619 -95.6086 116° Southeast 249 287 6,000  Climbing Houston Center
Mon 08:57:00 AM 29.8492 -95.5764 115° Southeast 248 285 5,900 -885 Descending Houston Center
Mon 08:58:31 AM 29.8025 -95.4639 116° Southeast 243 280 4,200 -1,145 Descending Houston Center
Mon 08:59:32 AM 29.7536 -95.4094 136° Southeast 216 249 3,000 -957 Descending Houston Center
Mon 09:00:05 AM 29.7417 -95.3944 133° Southeast 217 250 2,700 -885 Descending Houston Center
Mon 09:00:33 AM 29.7206 -95.3703 135° Southeast 165 190 2,100 -1,065 Descending Houston Center
Mon 09:01:07 AM 29.7039 -95.3486 132° Southeast 170 196 1,600 -813 Descending Houston Center
Mon 09:02:09 AM 29.6764 -95.3156 134° Southeast 152 175 800 -614 Descending Houston Center
Mon 09:02:35 AM 29.6661 -95.3047 138° Southeast 98 113 700 -231 Descending Houston Center
Mon 09:04:00 AM 29.6454 -95.2789 115° Southeast  Level Estimated

Login

Don't have an account? Register now (free) for customized features, flight alerts, and more!